This is the latest recevied weather packets stored in our database for station/object VK4HIT-13. If no packets are shown the sender has not sent any weather packets the latest 10 day(s).
| Time | Temp. | Humidity | Pressure | Rain* | Wind** | Luminosity | Snow |
|---|---|---|---|---|---|---|---|
| 1777868373 | 25.56° C | 60% | 1016.1 hPa | 0 mm | - | - | - |
| 1777868073 | 25.56° C | 60% | 1016.1 hPa | 0 mm | - | - | - |
| 1777867773 | 25° C | 60% | 1016.2 hPa | 0 mm | - | - | - |
| 1777867473 | 25° C | 61% | 1016.1 hPa | 0 mm | - | - | - |
| 1777867173 | 25° C | 61% | 1016.1 hPa | 0 mm | - | - | - |
| 1777866873 | 25° C | 61% | 1016.1 hPa | 0 mm | - | - | - |
| 1777866573 | 25° C | 62% | 1016.2 hPa | 0 mm | - | - | - |
| 1777866273 | 25° C | 61% | 1016.3 hPa | 0 mm | - | - | - |
| 1777865973 | 25° C | 61% | 1016.4 hPa | 0 mm | - | - | - |
| 1777865673 | 25° C | 60% | 1016.3 hPa | 0 mm | - | - | - |
| 1777865373 | 25° C | 59% | 1016.4 hPa | 0 mm | - | - | - |
| 1777865073 | 25.56° C | 57% | 1016.4 hPa | 0 mm | - | - | - |
| 1777864173 | 27.22° C | 56% | 1016.5 hPa | 0 mm | - | - | - |
| 1777863873 | 27.22° C | 55% | 1016.5 hPa | 0 mm | - | - | - |
| 1777863573 | 27.22° C | 56% | 1016.6 hPa | 0 mm | - | - | - |
| 1777847673 | 18.89° C | 87% | 1019.1 hPa | 0 mm | - | - | - |
| 1777839873 | 16.11° C | 92% | 1018.4 hPa | 0 mm | - | - | - |
| 1777835074 | 15.56° C | 93% | 1017.8 hPa | 0 mm | - | - | - |
| 1777834774 | 15.56° C | 93% | 1017.9 hPa | 0 mm | - | - | - |
| 1777834174 | 15.56° C | 92% | 1017.9 hPa | 0 mm | - | - | - |
| 1777833874 | 15.56° C | 93% | 1017.9 hPa | 0 mm | - | - | - |
| 1777833274 | 15.56° C | 92% | 1017.9 hPa | 0 mm | - | - | - |
| 1777832974 | 15.56° C | 93% | 1017.9 hPa | 0 mm | - | - | - |
| 1777832374 | 15° C | 91% | 1017.9 hPa | 0 mm | - | - | - |
| 1777832074 | 15.56° C | 91% | 1017.9 hPa | 0 mm | - | - | - |
* Rain latest hour (hover to see other rain measurements)
** Current wind speed in m/s (hover to see current wind gust speed)